04:07
Airports
History
Links
Donate
Help keep this website running!
PayPal
Bitcoin
This page is community maintained. The information is intended for PC simulator navigation or reference.
Always use approved charts for navigation.
DNZA
ZARIA
ZARIA (DNZA)
Zaria, Kaduna, Nigeria
(C)
Lat/Lng:11° 7' 48.8" N / 7° 41' 8.57" E
11.130222 / 7.685714
Elevation:2170'ft / 661mMSL
ID / ICAO:DNZA
Runways:1
Longest:06-24
Asphalt 1,674m / 5,491ft
Controlled:Yes
METAR11:00 GMT 2017-10-01
Altimeter: 29.91
Visibility: 6.2 statute miles
Wind: 16 knots (from 090°)
Temp: 31°c / 88°f
Humidity: 23.9%

METAR: DNZA 311100Z 09016KT CAVOK 31/08 Q1013

(Powered by phpweather)
Airport Radio Frequencies
Tower: 122.5, 123.3
Nearby VORs <50NM
Nearby NDBs
Runway 06 / 24
Dimensions:1673.7 x 29.9m 5491' x 98'ft
Surface:Asphalt
Runway 06 [A]Runway 24 [B]
Heading:049°TH 229°TH
Lat:
Lng:
11° 7' 31.25"N
7° 40' 47.67"E
11° 8' 6.35"N
7° 41' 29.47"E
User Notes and Comments
11° 7' 48.8" N / 7° 41' 8.57" E
Distance To
Airport ID:
Nearby Airports
(U) KADUNA 38.9 NM
DNKA ( WX ) SW 219°
(C) KADUNA OLD 40.1 NM
DN53 SSW 203°
(C) MALLAM AMINU INTL 85.0 NM
DNKN ( WX ) NE 41°
4 GUSAU 98.3 NM
DNGU NW 317°
(U) SHIRORO 104.3 NM
DN50 SW 214°
(C) KATSINA 129.7 NM
DN57 N 359°
(C) YAKUBU GOWON 130.7 NM
DNJO SE 142°
VFR Chart
Flight Planning at SkyVector.com